Accueil
METAR-TAF:

METAR-TAF

Aéroports :

Le Cap, Afrique du Sud

Aéroport international du Cap

latitude: 33-59S, longitude: 018-36E, altitude: 42 m

Observation

Le bulletin a été fait il y a 39 minutes, à 09:00 UTC
Vent 14 kt de sud, variant entre sud-est et sud/sud-ouest
Température 24°C
Humidité 54%
Pression 1015 hPa
Visibilité 10 km ou plus
Quelques nuages à une hauteur de 3000 ft

METAR: FACT 240900Z 18014KT 140V210 9999 FEW030 24/14 Q1015 NOSIG

Heure: 11:39 (09:39 UTC)

Prévision

Le bulletin a été fait il y a 5 heures et 39 minutes, à 04:00 UTC
Prévision valable du 24 à 06 UTC au 25 à 12 UTC
Vent 10 kt de sud/sud-ouest
Visibilité 10 km ou plus
Quelques nuages à une hauteur de 2500 ft
Nuages épars à une hauteur de 4000 ft
A partir de 24 à 1200 UTC
Vent 17 kt de sud
Visibilité 10 km ou plus
Quelques nuages à une hauteur de 3000 ft

TAF: FACT 240400Z 2406/2512 21010KT 9999 FEW025 SCT040 FM241200 17017KT 9999 FEW030 TX26/2412Z TN16/2504Z

Observations et prévisions météorologiques de plus de 4000 aéroports (messages METAR et TAF).

Les stations disponibles sont représentées par des disques jaunes et rouges sur la carte.

Passer la souris dessus pour voir le nom de la station.

Cliquer dessus pour voir les observations et prévisions météorologiques.

Pour changer de carte: cliquez sur les boutons verts avec une croix noire pour zoomer, sur le bouton vert avec un tiret pour effectuer un zoom arrière, ou sur les flèches vertes pour les cartes adjacentes.


METAR-TAF: